sensor_id;sensor_type;location;lat;lon;timestamp;P1;durP1;ratioP1;P2;durP2;ratioP2
59557;SDS011;45379;51.486;5.434;2022-07-23T00:02:09;7.65;;;4.45;;
59557;SDS011;45379;51.486;5.434;2022-07-23T00:04:35;7.25;;;4.10;;
59557;SDS011;45379;51.486;5.434;2022-07-23T00:07:01;7.22;;;4.45;;
59557;SDS011;45379;51.486;5.434;2022-07-23T00:09:27;8.77;;;4.45;;
59557;SDS011;45379;51.486;5.434;2022-07-23T00:11:55;8.98;;;4.57;;
59557;SDS011;45379;51.486;5.434;2022-07-23T00:14:21;6.47;;;4.35;;
59557;SDS011;45379;51.486;5.434;2022-07-23T00:16:47;7.28;;;4.20;;
59557;SDS011;45379;51.486;5.434;2022-07-23T00:19:13;7.30;;;4.30;;
59557;SDS011;45379;51.486;5.434;2022-07-23T00:21:39;5.60;;;4.20;;
59557;SDS011;45379;51.486;5.434;2022-07-23T00:24:05;8.30;;;4.72;;
59557;SDS011;45379;51.486;5.434;2022-07-23T00:26:31;6.03;;;3.97;;
59557;SDS011;45379;51.486;5.434;2022-07-23T00:28:57;8.10;;;4.07;;
59557;SDS011;45379;51.486;5.434;2022-07-23T00:31:22;6.18;;;4.45;;
59557;SDS011;45379;51.486;5.434;2022-07-23T00:33:48;7.40;;;4.68;;
59557;SDS011;45379;51.486;5.434;2022-07-23T00:36:14;5.53;;;4.18;;
59557;SDS011;45379;51.486;5.434;2022-07-23T00:38:40;7.60;;;4.65;;
59557;SDS011;45379;51.486;5.434;2022-07-23T00:41:06;8.20;;;4.55;;
59557;SDS011;45379;51.486;5.434;2022-07-23T00:43:31;5.70;;;4.63;;
59557;SDS011;45379;51.486;5.434;2022-07-23T00:45:57;6.55;;;4.05;;
59557;SDS011;45379;51.486;5.434;2022-07-23T00:48:23;6.72;;;4.53;;
59557;SDS011;45379;51.486;5.434;2022-07-23T00:50:49;9.10;;;4.63;;
59557;SDS011;45379;51.486;5.434;2022-07-23T00:53:15;7.75;;;4.75;;
59557;SDS011;45379;51.486;5.434;2022-07-23T00:55:41;7.70;;;4.68;;
59557;SDS011;45379;51.486;5.434;2022-07-23T00:58:07;6.95;;;4.10;;
59557;SDS011;45379;51.486;5.434;2022-07-23T01:00:34;8.27;;;4.55;;
59557;SDS011;45379;51.486;5.434;2022-07-23T01:03:00;8.25;;;4.53;;
59557;SDS011;45379;51.486;5.434;2022-07-23T01:05:26;5.20;;;4.30;;
59557;SDS011;45379;51.486;5.434;2022-07-23T01:07:52;7.88;;;4.53;;
59557;SDS011;45379;51.486;5.434;2022-07-23T01:10:18;7.50;;;4.72;;
59557;SDS011;45379;51.486;5.434;2022-07-23T01:12:55;6.22;;;4.40;;
59557;SDS011;45379;51.486;5.434;2022-07-23T01:15:26;7.53;;;4.90;;
59557;SDS011;45379;51.486;5.434;2022-07-23T01:17:52;7.78;;;5.03;;
59557;SDS011;45379;51.486;5.434;2022-07-23T01:20:18;7.10;;;4.85;;
59557;SDS011;45379;51.486;5.434;2022-07-23T01:22:44;7.07;;;4.22;;
59557;SDS011;45379;51.486;5.434;2022-07-23T01:25:10;5.63;;;4.18;;
59557;SDS011;45379;51.486;5.434;2022-07-23T01:27:36;6.78;;;4.70;;
59557;SDS011;45379;51.486;5.434;2022-07-23T01:30:02;7.05;;;4.75;;
59557;SDS011;45379;51.486;5.434;2022-07-23T01:32:29;5.57;;;4.35;;
59557;SDS011;45379;51.486;5.434;2022-07-23T01:34:55;6.22;;;4.60;;
59557;SDS011;45379;51.486;5.434;2022-07-23T01:37:21;6.07;;;4.28;;
59557;SDS011;45379;51.486;5.434;2022-07-23T01:39:47;5.00;;;4.45;;
59557;SDS011;45379;51.486;5.434;2022-07-23T01:42:12;7.97;;;4.03;;
59557;SDS011;45379;51.486;5.434;2022-07-23T01:44:38;6.60;;;4.13;;
59557;SDS011;45379;51.486;5.434;2022-07-23T01:47:04;6.85;;;4.72;;
59557;SDS011;45379;51.486;5.434;2022-07-23T01:49:30;7.22;;;5.25;;
59557;SDS011;45379;51.486;5.434;2022-07-23T01:51:56;5.30;;;4.28;;
59557;SDS011;45379;51.486;5.434;2022-07-23T01:54:29;8.82;;;4.70;;
59557;SDS011;45379;51.486;5.434;2022-07-23T01:56:58;8.65;;;4.57;;
59557;SDS011;45379;51.486;5.434;2022-07-23T01:59:24;6.18;;;4.20;;
59557;SDS011;45379;51.486;5.434;2022-07-23T02:01:51;6.05;;;4.53;;
59557;SDS011;45379;51.486;5.434;2022-07-23T02:04:18;6.57;;;4.60;;
59557;SDS011;45379;51.486;5.434;2022-07-23T02:06:45;6.13;;;4.45;;
59557;SDS011;45379;51.486;5.434;2022-07-23T02:09:11;8.75;;;4.75;;
59557;SDS011;45379;51.486;5.434;2022-07-23T02:11:37;5.50;;;4.53;;
59557;SDS011;45379;51.486;5.434;2022-07-23T02:14:03;6.60;;;4.75;;
59557;SDS011;45379;51.486;5.434;2022-07-23T02:16:29;9.20;;;4.82;;
59557;SDS011;45379;51.486;5.434;2022-07-23T02:18:55;7.30;;;5.53;;
59557;SDS011;45379;51.486;5.434;2022-07-23T02:21:21;6.25;;;4.85;;
59557;SDS011;45379;51.486;5.434;2022-07-23T02:23:47;7.93;;;5.00;;
59557;SDS011;45379;51.486;5.434;2022-07-23T02:26:13;6.32;;;4.80;;
59557;SDS011;45379;51.486;5.434;2022-07-23T02:28:39;8.93;;;5.40;;
59557;SDS011;45379;51.486;5.434;2022-07-23T02:31:04;6.38;;;5.07;;
59557;SDS011;45379;51.486;5.434;2022-07-23T02:33:31;7.00;;;4.78;;
59557;SDS011;45379;51.486;5.434;2022-07-23T02:35:58;7.07;;;5.15;;
59557;SDS011;45379;51.486;5.434;2022-07-23T02:38:24;5.72;;;4.60;;
59557;SDS011;45379;51.486;5.434;2022-07-23T02:40:50;6.85;;;4.88;;
59557;SDS011;45379;51.486;5.434;2022-07-23T02:43:16;7.93;;;4.75;;
59557;SDS011;45379;51.486;5.434;2022-07-23T02:45:41;8.50;;;5.90;;
59557;SDS011;45379;51.486;5.434;2022-07-23T02:48:07;7.20;;;5.30;;
59557;SDS011;45379;51.486;5.434;2022-07-23T02:50:33;6.57;;;5.22;;
59557;SDS011;45379;51.486;5.434;2022-07-23T02:52:59;9.05;;;5.03;;
59557;SDS011;45379;51.486;5.434;2022-07-23T02:55:25;7.25;;;5.00;;
59557;SDS011;45379;51.486;5.434;2022-07-23T02:57:51;6.18;;;5.03;;
59557;SDS011;45379;51.486;5.434;2022-07-23T03:00:17;7.25;;;4.90;;
59557;SDS011;45379;51.486;5.434;2022-07-23T03:02:42;6.40;;;5.15;;
59557;SDS011;45379;51.486;5.434;2022-07-23T03:05:08;6.32;;;5.10;;
59557;SDS011;45379;51.486;5.434;2022-07-23T03:07:34;8.98;;;5.28;;
59557;SDS011;45379;51.486;5.434;2022-07-23T03:10:00;7.45;;;5.07;;
59557;SDS011;45379;51.486;5.434;2022-07-23T03:12:27;9.15;;;5.53;;
59557;SDS011;45379;51.486;5.434;2022-07-23T03:14:52;6.15;;;5.05;;
59557;SDS011;45379;51.486;5.434;2022-07-23T03:17:19;7.43;;;5.55;;
59557;SDS011;45379;51.486;5.434;2022-07-23T03:19:44;8.48;;;6.18;;
59557;SDS011;45379;51.486;5.434;2022-07-23T03:22:10;11.38;;;5.95;;
59557;SDS011;45379;51.486;5.434;2022-07-23T03:24:36;7.72;;;5.85;;
59557;SDS011;45379;51.486;5.434;2022-07-23T03:27:21;7.03;;;5.57;;
59557;SDS011;45379;51.486;5.434;2022-07-23T03:29:52;7.30;;;5.95;;
59557;SDS011;45379;51.486;5.434;2022-07-23T03:32:21;8.13;;;6.10;;
59557;SDS011;45379;51.486;5.434;2022-07-23T03:34:48;9.52;;;6.60;;
59557;SDS011;45379;51.486;5.434;2022-07-23T03:37:14;8.73;;;5.60;;
59557;SDS011;45379;51.486;5.434;2022-07-23T03:39:41;8.25;;;6.40;;
59557;SDS011;45379;51.486;5.434;2022-07-23T03:42:07;8.20;;;6.05;;
59557;SDS011;45379;51.486;5.434;2022-07-23T03:44:33;7.90;;;5.80;;
59557;SDS011;45379;51.486;5.434;2022-07-23T03:46:59;9.20;;;6.07;;
59557;SDS011;45379;51.486;5.434;2022-07-23T03:49:25;8.48;;;5.82;;
59557;SDS011;45379;51.486;5.434;2022-07-23T03:51:51;8.90;;;5.90;;
59557;SDS011;45379;51.486;5.434;2022-07-23T03:54:16;9.63;;;6.38;;
59557;SDS011;45379;51.486;5.434;2022-07-23T03:56:42;6.57;;;5.68;;
59557;SDS011;45379;51.486;5.434;2022-07-23T03:59:08;7.88;;;5.70;;
59557;SDS011;45379;51.486;5.434;2022-07-23T04:01:34;7.35;;;5.38;;
59557;SDS011;45379;51.486;5.434;2022-07-23T04:04:01;7.65;;;6.22;;
59557;SDS011;45379;51.486;5.434;2022-07-23T04:06:27;8.55;;;6.03;;
59557;SDS011;45379;51.486;5.434;2022-07-23T04:08:53;7.30;;;5.65;;
59557;SDS011;45379;51.486;5.434;2022-07-23T04:11:19;8.30;;;6.78;;
59557;SDS011;45379;51.486;5.434;2022-07-23T04:13:45;9.02;;;6.70;;
59557;SDS011;45379;51.486;5.434;2022-07-23T04:16:10;7.95;;;6.03;;
59557;SDS011;45379;51.486;5.434;2022-07-23T04:18:36;11.18;;;7.15;;
59557;SDS011;45379;51.486;5.434;2022-07-23T04:21:02;7.85;;;5.90;;
59557;SDS011;45379;51.486;5.434;2022-07-23T04:23:28;7.47;;;5.90;;
59557;SDS011;45379;51.486;5.434;2022-07-23T04:25:54;11.55;;;7.05;;
59557;SDS011;45379;51.486;5.434;2022-07-23T04:28:20;7.57;;;6.28;;
59557;SDS011;45379;51.486;5.434;2022-07-23T04:30:46;9.18;;;7.15;;
59557;SDS011;45379;51.486;5.434;2022-07-23T04:33:12;7.82;;;6.93;;
59557;SDS011;45379;51.486;5.434;2022-07-23T04:35:38;11.10;;;7.60;;
59557;SDS011;45379;51.486;5.434;2022-07-23T04:38:04;12.50;;;8.18;;
59557;SDS011;45379;51.486;5.434;2022-07-23T04:40:29;11.57;;;8.38;;
59557;SDS011;45379;51.486;5.434;2022-07-23T04:42:55;10.55;;;8.32;;
59557;SDS011;45379;51.486;5.434;2022-07-23T04:45:21;15.60;;;8.98;;
59557;SDS011;45379;51.486;5.434;2022-07-23T04:47:48;11.02;;;8.73;;
59557;SDS011;45379;51.486;5.434;2022-07-23T04:50:14;10.85;;;8.70;;
59557;SDS011;45379;51.486;5.434;2022-07-23T04:52:43;13.32;;;9.45;;
59557;SDS011;45379;51.486;5.434;2022-07-23T04:55:10;11.95;;;10.23;;
59557;SDS011;45379;51.486;5.434;2022-07-23T04:57:43;12.85;;;9.70;;
59557;SDS011;45379;51.486;5.434;2022-07-23T05:00:09;14.85;;;10.75;;
59557;SDS011;45379;51.486;5.434;2022-07-23T05:02:35;12.55;;;10.27;;
59557;SDS011;45379;51.486;5.434;2022-07-23T05:05:01;14.80;;;10.77;;
59557;SDS011;45379;51.486;5.434;2022-07-23T05:07:27;13.48;;;10.15;;
59557;SDS011;45379;51.486;5.434;2022-07-23T05:09:52;15.05;;;11.10;;
59557;SDS011;45379;51.486;5.434;2022-07-23T05:12:18;15.77;;;11.55;;
59557;SDS011;45379;51.486;5.434;2022-07-23T05:14:44;13.00;;;11.25;;
59557;SDS011;45379;51.486;5.434;2022-07-23T05:17:10;14.35;;;11.80;;
59557;SDS011;45379;51.486;5.434;2022-07-23T05:19:35;13.60;;;11.13;;
59557;SDS011;45379;51.486;5.434;2022-07-23T05:22:01;13.75;;;10.68;;
59557;SDS011;45379;51.486;5.434;2022-07-23T05:24:27;11.98;;;9.95;;
59557;SDS011;45379;51.486;5.434;2022-07-23T05:26:53;14.98;;;11.02;;
59557;SDS011;45379;51.486;5.434;2022-07-23T05:29:19;13.15;;;11.10;;
59557;SDS011;45379;51.486;5.434;2022-07-23T05:31:45;15.60;;;10.80;;
59557;SDS011;45379;51.486;5.434;2022-07-23T05:34:10;11.95;;;10.18;;
59557;SDS011;45379;51.486;5.434;2022-07-23T05:36:36;13.80;;;10.70;;
59557;SDS011;45379;51.486;5.434;2022-07-23T05:39:02;15.75;;;11.27;;
59557;SDS011;45379;51.486;5.434;2022-07-23T05:41:28;15.00;;;10.95;;
59557;SDS011;45379;51.486;5.434;2022-07-23T05:43:54;19.60;;;12.38;;
59557;SDS011;45379;51.486;5.434;2022-07-23T05:46:20;15.70;;;10.05;;
59557;SDS011;45379;51.486;5.434;2022-07-23T05:48:46;13.90;;;10.40;;
59557;SDS011;45379;51.486;5.434;2022-07-23T05:51:18;17.48;;;12.77;;
59557;SDS011;45379;51.486;5.434;2022-07-23T05:53:49;15.68;;;11.07;;
59557;SDS011;45379;51.486;5.434;2022-07-23T05:56:15;15.02;;;11.13;;
59557;SDS011;45379;51.486;5.434;2022-07-23T05:58:43;13.90;;;10.35;;
59557;SDS011;45379;51.486;5.434;2022-07-23T06:01:08;15.60;;;10.45;;
59557;SDS011;45379;51.486;5.434;2022-07-23T06:03:36;15.77;;;11.25;;
59557;SDS011;45379;51.486;5.434;2022-07-23T06:06:03;16.05;;;10.23;;
59557;SDS011;45379;51.486;5.434;2022-07-23T06:08:30;12.18;;;9.57;;
59557;SDS011;45379;51.486;5.434;2022-07-23T06:10:56;11.60;;;9.85;;
59557;SDS011;45379;51.486;5.434;2022-07-23T06:13:21;15.25;;;9.20;;
59557;SDS011;45379;51.486;5.434;2022-07-23T06:15:47;11.75;;;8.55;;
59557;SDS011;45379;51.486;5.434;2022-07-23T06:18:13;13.10;;;8.93;;
59557;SDS011;45379;51.486;5.434;2022-07-23T06:20:41;10.82;;;8.55;;
59557;SDS011;45379;51.486;5.434;2022-07-23T06:23:07;13.50;;;9.40;;
59557;SDS011;45379;51.486;5.434;2022-07-23T06:25:33;13.02;;;7.97;;
59557;SDS011;45379;51.486;5.434;2022-07-23T06:27:59;11.55;;;7.97;;
59557;SDS011;45379;51.486;5.434;2022-07-23T06:30:25;12.85;;;8.07;;
59557;SDS011;45379;51.486;5.434;2022-07-23T06:32:51;12.50;;;8.70;;
59557;SDS011;45379;51.486;5.434;2022-07-23T06:35:16;15.65;;;7.63;;
59557;SDS011;45379;51.486;5.434;2022-07-23T06:37:42;13.45;;;7.50;;
59557;SDS011;45379;51.486;5.434;2022-07-23T06:40:08;9.07;;;6.85;;
59557;SDS011;45379;51.486;5.434;2022-07-23T06:42:35;10.43;;;6.78;;
59557;SDS011;45379;51.486;5.434;2022-07-23T06:45:02;7.00;;;5.70;;
59557;SDS011;45379;51.486;5.434;2022-07-23T06:47:29;10.07;;;6.55;;
59557;SDS011;45379;51.486;5.434;2022-07-23T06:49:55;9.38;;;6.57;;
59557;SDS011;45379;51.486;5.434;2022-07-23T06:52:21;12.68;;;7.47;;
59557;SDS011;45379;51.486;5.434;2022-07-23T06:54:46;11.38;;;6.93;;
59557;SDS011;45379;51.486;5.434;2022-07-23T06:57:12;9.15;;;7.57;;
59557;SDS011;45379;51.486;5.434;2022-07-23T06:59:38;11.25;;;7.10;;
59557;SDS011;45379;51.486;5.434;2022-07-23T07:02:05;9.48;;;6.90;;
59557;SDS011;45379;51.486;5.434;2022-07-23T07:04:32;8.35;;;6.40;;
59557;SDS011;45379;51.486;5.434;2022-07-23T07:06:58;8.68;;;6.75;;
59557;SDS011;45379;51.486;5.434;2022-07-23T07:09:24;11.52;;;6.90;;
59557;SDS011;45379;51.486;5.434;2022-07-23T07:11:49;9.73;;;5.82;;
59557;SDS011;45379;51.486;5.434;2022-07-23T07:14:15;6.90;;;5.45;;
59557;SDS011;45379;51.486;5.434;2022-07-23T07:16:41;8.65;;;5.45;;
59557;SDS011;45379;51.486;5.434;2022-07-23T07:19:07;9.73;;;5.30;;
59557;SDS011;45379;51.486;5.434;2022-07-23T07:21:32;7.82;;;5.30;;
59557;SDS011;45379;51.486;5.434;2022-07-23T07:23:58;8.95;;;5.78;;
59557;SDS011;45379;51.486;5.434;2022-07-23T07:26:24;7.95;;;4.97;;
59557;SDS011;45379;51.486;5.434;2022-07-23T07:28:50;10.25;;;5.68;;
59557;SDS011;45379;51.486;5.434;2022-07-23T07:31:16;7.90;;;4.25;;
59557;SDS011;45379;51.486;5.434;2022-07-23T07:33:42;7.97;;;4.70;;
59557;SDS011;45379;51.486;5.434;2022-07-23T07:36:08;7.53;;;4.85;;
59557;SDS011;45379;51.486;5.434;2022-07-23T07:38:34;6.97;;;5.20;;
59557;SDS011;45379;51.486;5.434;2022-07-23T07:41:00;9.43;;;6.03;;
59557;SDS011;45379;51.486;5.434;2022-07-23T07:43:26;7.60;;;5.03;;
59557;SDS011;45379;51.486;5.434;2022-07-23T07:45:51;7.10;;;6.07;;
59557;SDS011;45379;51.486;5.434;2022-07-23T07:48:17;8.93;;;5.85;;
59557;SDS011;45379;51.486;5.434;2022-07-23T07:50:43;10.77;;;7.75;;
59557;SDS011;45379;51.486;5.434;2022-07-23T07:53:09;9.48;;;6.30;;
59557;SDS011;45379;51.486;5.434;2022-07-23T07:55:35;11.38;;;7.47;;
59557;SDS011;45379;51.486;5.434;2022-07-23T07:58:01;12.85;;;6.50;;
59557;SDS011;45379;51.486;5.434;2022-07-23T08:00:27;10.20;;;6.22;;
59557;SDS011;45379;51.486;5.434;2022-07-23T08:02:53;10.73;;;6.03;;
59557;SDS011;45379;51.486;5.434;2022-07-23T08:05:23;11.20;;;5.90;;
59557;SDS011;45379;51.486;5.434;2022-07-23T08:07:54;10.40;;;6.00;;
59557;SDS011;45379;51.486;5.434;2022-07-23T08:10:21;13.88;;;6.13;;
59557;SDS011;45379;51.486;5.434;2022-07-23T08:12:49;7.60;;;5.10;;
59557;SDS011;45379;51.486;5.434;2022-07-23T08:15:18;11.35;;;5.22;;
59557;SDS011;45379;51.486;5.434;2022-07-23T08:17:46;9.80;;;5.28;;
59557;SDS011;45379;51.486;5.434;2022-07-23T08:20:13;9.55;;;5.25;;
59557;SDS011;45379;51.486;5.434;2022-07-23T08:22:50;10.45;;;4.68;;
59557;SDS011;45379;51.486;5.434;2022-07-23T08:25:38;7.35;;;4.80;;
59557;SDS011;45379;51.486;5.434;2022-07-23T08:28:07;8.45;;;5.00;;
59557;SDS011;45379;51.486;5.434;2022-07-23T08:30:35;7.75;;;4.50;;
59557;SDS011;45379;51.486;5.434;2022-07-23T08:33:06;7.68;;;4.82;;
59557;SDS011;45379;51.486;5.434;2022-07-23T08:35:41;7.32;;;4.28;;
59557;SDS011;45379;51.486;5.434;2022-07-23T08:38:14;8.75;;;5.13;;
59557;SDS011;45379;51.486;5.434;2022-07-23T08:40:47;8.20;;;4.80;;
59557;SDS011;45379;51.486;5.434;2022-07-23T08:43:18;8.07;;;4.88;;
59557;SDS011;45379;51.486;5.434;2022-07-23T08:45:53;7.85;;;5.15;;
59557;SDS011;45379;51.486;5.434;2022-07-23T08:48:22;5.68;;;3.72;;
59557;SDS011;45379;51.486;5.434;2022-07-23T08:50:57;9.50;;;5.25;;
59557;SDS011;45379;51.486;5.434;2022-07-23T08:53:27;8.23;;;4.50;;
59557;SDS011;45379;51.486;5.434;2022-07-23T08:55:55;6.05;;;4.40;;
59557;SDS011;45379;51.486;5.434;2022-07-23T08:58:26;6.25;;;3.75;;
59557;SDS011;45379;51.486;5.434;2022-07-23T09:00:52;6.95;;;3.95;;
59557;SDS011;45379;51.486;5.434;2022-07-23T09:05:51;12.10;;;3.80;;
59557;SDS011;45379;51.486;5.434;2022-07-23T09:08:18;6.03;;;3.35;;
59557;SDS011;45379;51.486;5.434;2022-07-23T09:13:38;6.22;;;3.40;;
59557;SDS011;45379;51.486;5.434;2022-07-23T09:16:17;6.78;;;3.58;;
59557;SDS011;45379;51.486;5.434;2022-07-23T09:18:58;9.40;;;3.28;;
59557;SDS011;45379;51.486;5.434;2022-07-23T09:21:34;6.38;;;3.00;;
59557;SDS011;45379;51.486;5.434;2022-07-23T09:24:06;6.28;;;4.00;;
59557;SDS011;45379;51.486;5.434;2022-07-23T09:26:46;7.10;;;3.30;;
59557;SDS011;45379;51.486;5.434;2022-07-23T09:29:19;7.05;;;3.70;;
59557;SDS011;45379;51.486;5.434;2022-07-23T09:31:55;7.68;;;2.97;;
59557;SDS011;45379;51.486;5.434;2022-07-23T09:34:28;7.00;;;3.45;;
59557;SDS011;45379;51.486;5.434;2022-07-23T09:37:20;3.72;;;2.63;;
59557;SDS011;45379;51.486;5.434;2022-07-23T09:39:47;5.30;;;2.60;;
59557;SDS011;45379;51.486;5.434;2022-07-23T09:44:48;6.22;;;2.72;;
59557;SDS011;45379;51.486;5.434;2022-07-23T09:47:16;6.03;;;3.22;;
59557;SDS011;45379;51.486;5.434;2022-07-23T09:49:57;9.50;;;4.18;;
59557;SDS011;45379;51.486;5.434;2022-07-23T09:52:44;8.45;;;3.20;;
59557;SDS011;45379;51.486;5.434;2022-07-23T09:55:13;5.47;;;3.30;;
59557;SDS011;45379;51.486;5.434;2022-07-23T09:57:42;6.95;;;2.97;;
59557;SDS011;45379;51.486;5.434;2022-07-23T10:00:20;5.38;;;2.85;;
59557;SDS011;45379;51.486;5.434;2022-07-23T10:02:47;5.82;;;2.70;;
59557;SDS011;45379;51.486;5.434;2022-07-23T10:05:15;6.03;;;2.58;;
59557;SDS011;45379;51.486;5.434;2022-07-23T10:07:41;3.58;;;2.47;;
59557;SDS011;45379;51.486;5.434;2022-07-23T10:10:08;8.65;;;2.35;;
59557;SDS011;45379;51.486;5.434;2022-07-23T10:12:36;4.28;;;2.40;;
59557;SDS011;45379;51.486;5.434;2022-07-23T10:15:02;6.55;;;2.70;;
59557;SDS011;45379;51.486;5.434;2022-07-23T10:17:32;5.47;;;2.58;;
59557;SDS011;45379;51.486;5.434;2022-07-23T10:19:58;5.22;;;1.98;;
59557;SDS011;45379;51.486;5.434;2022-07-23T10:22:25;5.18;;;2.80;;
59557;SDS011;45379;51.486;5.434;2022-07-23T10:28:06;5.40;;;2.10;;
59557;SDS011;45379;51.486;5.434;2022-07-23T10:40:15;3.67;;;2.00;;
59557;SDS011;45379;51.486;5.434;2022-07-23T10:42:48;3.38;;;1.80;;
59557;SDS011;45379;51.486;5.434;2022-07-23T10:45:31;5.40;;;1.83;;
59557;SDS011;45379;51.486;5.434;2022-07-23T10:51:07;3.28;;;1.77;;
59557;SDS011;45379;51.486;5.434;2022-07-23T10:53:53;4.45;;;2.05;;
59557;SDS011;45379;51.486;5.434;2022-07-23T10:59:21;4.80;;;1.77;;
59557;SDS011;45379;51.486;5.434;2022-07-23T11:01:47;4.75;;;2.10;;
59557;SDS011;45379;51.486;5.434;2022-07-23T11:04:14;3.53;;;1.95;;
59557;SDS011;45379;51.486;5.434;2022-07-23T11:09:30;3.20;;;2.00;;
59557;SDS011;45379;51.486;5.434;2022-07-23T11:17:35;5.70;;;1.90;;
59557;SDS011;45379;51.486;5.434;2022-07-23T11:20:27;4.22;;;1.35;;
59557;SDS011;45379;51.486;5.434;2022-07-23T11:22:57;2.45;;;1.40;;
59557;SDS011;45379;51.486;5.434;2022-07-23T11:27:50;5.72;;;1.30;;
59557;SDS011;45379;51.486;5.434;2022-07-23T11:32:51;2.53;;;1.20;;
59557;SDS011;45379;51.486;5.434;2022-07-23T11:35:20;5.80;;;1.40;;
59557;SDS011;45379;51.486;5.434;2022-07-23T11:37:53;2.40;;;1.30;;
59557;SDS011;45379;51.486;5.434;2022-07-23T11:40:28;1.63;;;1.20;;
59557;SDS011;45379;51.486;5.434;2022-07-23T11:42:55;3.08;;;1.38;;
59557;SDS011;45379;51.486;5.434;2022-07-23T11:45:47;2.80;;;1.55;;
59557;SDS011;45379;51.486;5.434;2022-07-23T11:48:23;1.88;;;1.10;;
59557;SDS011;45379;51.486;5.434;2022-07-23T11:50:51;2.63;;;1.40;;
59557;SDS011;45379;51.486;5.434;2022-07-23T11:53:22;2.25;;;1.30;;
59557;SDS011;45379;51.486;5.434;2022-07-23T11:56:05;4.25;;;1.30;;
59557;SDS011;45379;51.486;5.434;2022-07-23T11:58:34;3.08;;;1.50;;
59557;SDS011;45379;51.486;5.434;2022-07-23T12:01:01;2.85;;;1.58;;
59557;SDS011;45379;51.486;5.434;2022-07-23T12:03:27;3.50;;;1.50;;
59557;SDS011;45379;51.486;5.434;2022-07-23T12:05:57;2.33;;;1.30;;
59557;SDS011;45379;51.486;5.434;2022-07-23T12:08:24;2.53;;;1.10;;
59557;SDS011;45379;51.486;5.434;2022-07-23T12:10:50;6.60;;;1.38;;
59557;SDS011;45379;51.486;5.434;2022-07-23T12:13:17;3.08;;;1.30;;
59557;SDS011;45379;51.486;5.434;2022-07-23T12:15:50;3.83;;;1.40;;
59557;SDS011;45379;51.486;5.434;2022-07-23T12:18:19;6.50;;;1.60;;
59557;SDS011;45379;51.486;5.434;2022-07-23T12:20:49;2.15;;;1.48;;
59557;SDS011;45379;51.486;5.434;2022-07-23T12:25:47;11.45;;;1.40;;
59557;SDS011;45379;51.486;5.434;2022-07-23T12:30:53;3.65;;;1.40;;
59557;SDS011;45379;51.486;5.434;2022-07-23T12:33:30;2.47;;;1.50;;
59557;SDS011;45379;51.486;5.434;2022-07-23T12:36:04;3.00;;;1.50;;
59557;SDS011;45379;51.486;5.434;2022-07-23T12:38:51;3.55;;;1.23;;
59557;SDS011;45379;51.486;5.434;2022-07-23T12:41:26;2.63;;;1.17;;
59557;SDS011;45379;51.486;5.434;2022-07-23T12:43:57;5.45;;;1.70;;
59557;SDS011;45379;51.486;5.434;2022-07-23T12:46:24;4.53;;;1.40;;
59557;SDS011;45379;51.486;5.434;2022-07-23T12:51:58;2.05;;;1.40;;
59557;SDS011;45379;51.486;5.434;2022-07-23T12:54:27;3.28;;;1.20;;
59557;SDS011;45379;51.486;5.434;2022-07-23T12:57:01;2.85;;;1.10;;
59557;SDS011;45379;51.486;5.434;2022-07-23T12:59:30;3.60;;;1.30;;
59557;SDS011;45379;51.486;5.434;2022-07-23T13:02:44;2.60;;;1.10;;
59557;SDS011;45379;51.486;5.434;2022-07-23T13:05:11;2.80;;;1.42;;
59557;SDS011;45379;51.486;5.434;2022-07-23T13:07:38;4.47;;;1.55;;
59557;SDS011;45379;51.486;5.434;2022-07-23T13:10:04;3.40;;;1.42;;
59557;SDS011;45379;51.486;5.434;2022-07-23T13:12:30;3.30;;;1.55;;
59557;SDS011;45379;51.486;5.434;2022-07-23T13:14:58;2.25;;;1.45;;
59557;SDS011;45379;51.486;5.434;2022-07-23T13:17:37;1.30;;;1.20;;
59557;SDS011;45379;51.486;5.434;2022-07-23T13:20:04;2.00;;;1.48;;
59557;SDS011;45379;51.486;5.434;2022-07-23T13:22:49;5.43;;;1.52;;
59557;SDS011;45379;51.486;5.434;2022-07-23T13:25:29;3.55;;;1.50;;
59557;SDS011;45379;51.486;5.434;2022-07-23T13:28:05;4.45;;;1.58;;
59557;SDS011;45379;51.486;5.434;2022-07-23T13:31:17;4.00;;;1.30;;
59557;SDS011;45379;51.486;5.434;2022-07-23T13:33:25;3.22;;;1.35;;
59557;SDS011;45379;51.486;5.434;2022-07-23T13:36:06;3.05;;;1.38;;
59557;SDS011;45379;51.486;5.434;2022-07-23T13:38:35;5.22;;;1.40;;
59557;SDS011;45379;51.486;5.434;2022-07-23T13:41:21;3.22;;;1.63;;
59557;SDS011;45379;51.486;5.434;2022-07-23T13:43:47;2.60;;;1.40;;
59557;SDS011;45379;51.486;5.434;2022-07-23T13:46:20;3.60;;;1.60;;
59557;SDS011;45379;51.486;5.434;2022-07-23T13:48:56;2.67;;;1.52;;
59557;SDS011;45379;51.486;5.434;2022-07-23T13:51:32;1.75;;;1.38;;
59557;SDS011;45379;51.486;5.434;2022-07-23T13:54:13;2.22;;;1.20;;
59557;SDS011;45379;51.486;5.434;2022-07-23T13:56:41;1.77;;;1.50;;
59557;SDS011;45379;51.486;5.434;2022-07-23T13:59:13;4.10;;;1.40;;
59557;SDS011;45379;51.486;5.434;2022-07-23T14:01:45;3.75;;;1.05;;
59557;SDS011;45379;51.486;5.434;2022-07-23T14:07:52;2.22;;;1.60;;
59557;SDS011;45379;51.486;5.434;2022-07-23T14:10:20;5.63;;;1.67;;
59557;SDS011;45379;51.486;5.434;2022-07-23T14:13:02;2.80;;;1.48;;
59557;SDS011;45379;51.486;5.434;2022-07-23T14:15:46;2.80;;;1.40;;
59557;SDS011;45379;51.486;5.434;2022-07-23T14:18:22;3.55;;;1.50;;
59557;SDS011;45379;51.486;5.434;2022-07-23T14:20:48;2.00;;;1.50;;
59557;SDS011;45379;51.486;5.434;2022-07-23T14:23:18;2.25;;;1.40;;
59557;SDS011;45379;51.486;5.434;2022-07-23T14:25:44;3.65;;;1.48;;
59557;SDS011;45379;51.486;5.434;2022-07-23T14:28:19;2.90;;;1.30;;
59557;SDS011;45379;51.486;5.434;2022-07-23T14:30:45;2.65;;;1.65;;
59557;SDS011;45379;51.486;5.434;2022-07-23T14:33:11;2.75;;;1.67;;
59557;SDS011;45379;51.486;5.434;2022-07-23T14:35:38;4.07;;;1.60;;
59557;SDS011;45379;51.486;5.434;2022-07-23T14:38:04;3.08;;;1.98;;
59557;SDS011;45379;51.486;5.434;2022-07-23T14:40:40;2.47;;;1.58;;
59557;SDS011;45379;51.486;5.434;2022-07-23T14:43:15;3.03;;;1.25;;
59557;SDS011;45379;51.486;5.434;2022-07-23T14:45:48;3.38;;;1.50;;
59557;SDS011;45379;51.486;5.434;2022-07-23T14:48:17;2.10;;;1.40;;
59557;SDS011;45379;51.486;5.434;2022-07-23T14:50:43;3.42;;;1.50;;
59557;SDS011;45379;51.486;5.434;2022-07-23T14:53:10;2.80;;;1.70;;
59557;SDS011;45379;51.486;5.434;2022-07-23T14:55:36;2.60;;;1.40;;
59557;SDS011;45379;51.486;5.434;2022-07-23T14:58:09;3.38;;;1.70;;
59557;SDS011;45379;51.486;5.434;2022-07-23T15:00:45;2.33;;;1.60;;
59557;SDS011;45379;51.486;5.434;2022-07-23T15:03:32;2.63;;;1.60;;
59557;SDS011;45379;51.486;5.434;2022-07-23T15:06:01;3.45;;;1.52;;
59557;SDS011;45379;51.486;5.434;2022-07-23T15:08:37;4.38;;;1.90;;
59557;SDS011;45379;51.486;5.434;2022-07-23T15:11:12;3.53;;;1.52;;
59557;SDS011;45379;51.486;5.434;2022-07-23T15:13:38;2.95;;;1.75;;
59557;SDS011;45379;51.486;5.434;2022-07-23T15:16:05;4.10;;;1.65;;
59557;SDS011;45379;51.486;5.434;2022-07-23T15:18:32;2.30;;;1.73;;
59557;SDS011;45379;51.486;5.434;2022-07-23T15:20:59;2.65;;;1.67;;
59557;SDS011;45379;51.486;5.434;2022-07-23T15:23:26;4.00;;;1.70;;
59557;SDS011;45379;51.486;5.434;2022-07-23T15:25:53;3.45;;;1.83;;
59557;SDS011;45379;51.486;5.434;2022-07-23T15:28:20;4.82;;;1.98;;
59557;SDS011;45379;51.486;5.434;2022-07-23T15:30:46;4.85;;;2.15;;
59557;SDS011;45379;51.486;5.434;2022-07-23T15:33:17;3.13;;;1.55;;
59557;SDS011;45379;51.486;5.434;2022-07-23T15:35:42;3.67;;;2.15;;
59557;SDS011;45379;51.486;5.434;2022-07-23T15:38:09;2.17;;;1.70;;
59557;SDS011;45379;51.486;5.434;2022-07-23T15:40:34;3.72;;;1.70;;
59557;SDS011;45379;51.486;5.434;2022-07-23T15:43:00;3.25;;;1.80;;
59557;SDS011;45379;51.486;5.434;2022-07-23T15:45:28;9.05;;;2.20;;